Time;durP1;ratioP1;P1;durP2;ratioP2;P2;SDS_P1;SDS_P2;PMS_P1;PMS_P2;Temp;Humidity;BMP_temperature;BMP_pressure;BME280_temperature;BME280_humidity;BME280_pressure;Samples;Min_cycle;Max_cycle;Signal;HPM_P1;HPM_P2
2023/01/17 00:01:28;;;;;;;;;4.00;4.00;;;;;4.97;100.00;98697.84;5056061;28;70227;-90
2023/01/17 00:10:05;;;;;;;;;7.75;3.50;;;;;4.94;100.00;98676.50;5056885;28;45247;-90
2023/01/17 00:12:43;;;;;;;;;;;;;;;;;;;;;
2023/01/17 00:15:22;;;;;;;;;;;;;;;;;;;;;
2023/01/17 00:18:27;;;;;;;;;;;;;;;;;;;;;
2023/01/17 01:36:03;;;;;;;;;6.50;4.50;;;;;4.43;100.00;98655.25;5059757;28;45226;-90
2023/01/17 01:39:07;;;;;;;;;;;;;;;;;;;;;
2023/01/17 01:45:19;;;;;;;;;;;;;;;;;;;;;
2023/01/17 01:48:13;;;;;;;;;;;;;;;;;;;;;
2023/01/17 01:50:51;;;;;;;;;;;;;;;;;;;;;
2023/01/17 01:56:22;;;;;;;;;;;;;;;;;;;;;
2023/01/17 01:59:00;;;;;;;;;4.25;4.25;;;;;4.49;100.00;98624.09;4999086;28;76222;-90
2023/01/17 02:01:55;;;;;;;;;;;;;;;;;;;;;
2023/01/17 02:04:31;;;;;;;;;;;;;;;;;;;;;
2023/01/17 02:07:40;;;;;;;;;;;;;;;;;;;;;
2023/01/17 02:13:30;;;;;;;;;;;;;;;;;;;;;
2023/01/17 02:16:39;;;;;;;;;;;;;;;;;;;;;
2023/01/17 02:19:40;;;;;;;;;;;;;;;;;;;;;
2023/01/17 02:22:47;;;;;;;;;;;;;;;;;;;;;
2023/01/17 02:25:26;;;;;;;;;;;;;;;;;;;;;
2023/01/17 02:28:20;;;;;;;;;;;;;;;;;;;;;
2023/01/17 02:31:14;;;;;;;;;6.00;4.00;;;;;4.41;100.00;98572.03;4976311;28;70268;-90
2023/01/17 02:34:11;;;;;;;;;7.25;5.25;;;;;4.38;100.00;98562.69;4962908;28;46830;-90
2023/01/17 02:37:35;;;;;;;;;;;;;;;;;;;;;
2023/01/17 02:40:27;;;;;;;;;7.50;6.25;;;;;4.42;100.00;98555.66;4914716;28;70161;-90
2023/01/17 02:43:16;;;;;;;;;;;;;;;;;;;;;
2023/01/17 02:49:09;;;;;;;;;;;;;;;;;;;;;
2023/01/17 02:52:19;;;;;;;;;6.00;5.25;;;;;4.50;100.00;98516.75;4991130;28;69945;-90
2023/01/17 02:55:18;;;;;;;;;;;;;;;;;;;;;
2023/01/17 02:58:17;;;;;;;;;10.25;6.75;;;;;4.49;100.00;98512.47;4920865;28;75955;-91
2023/01/17 03:00:55;;;;;;;;;8.25;5.25;;;;;4.48;100.00;98503.91;4937666;28;45792;-90
2023/01/17 03:07:04;;;;;;;;;;;;;;;;;;;;;
2023/01/17 03:12:47;;;;;;;;;;;;;;;;;;;;;
2023/01/17 03:15:55;;;;;;;;;;;;;;;;;;;;;
2023/01/17 03:18:31;;;;;;;;;;;;;;;;;;;;;
2023/01/17 03:21:44;;;;;;;;;;;;;;;;;;;;;
2023/01/17 03:24:14;;;;;;;;;10.75;6.00;;;;;4.46;100.00;98460.16;4980175;28;72822;-90
2023/01/17 03:27:10;;;;;;;;;;;;;;;;;;;;;
2023/01/17 03:30:08;;;;;;;;;;;;;;;;;;;;;
2023/01/17 03:36:00;;;;;;;;;;;;;;;;;;;;;
2023/01/17 03:38:41;;;;;;;;;;;;;;;;;;;;;
2023/01/17 03:41:18;;;;;;;;;11.00;5.75;;;;;4.48;100.00;98452.38;4958254;28;70715;-90
2023/01/17 03:44:07;;;;;;;;;;;;;;;;;;;;;
2023/01/17 03:47:05;;;;;;;;;;;;;;;;;;;;;
2023/01/17 03:50:01;;;;;;;;;;;;;;;;;;;;;
2023/01/17 03:53:02;;;;;;;;;;;;;;;;;;;;;
2023/01/17 03:55:17;;;;;;;;;8.50;6.50;;;;;4.56;100.00;98440.00;4941388;28;46878;-90
2023/01/17 03:58:31;;;;;;;;;8.75;7.00;;;;;4.56;100.00;98442.59;4940602;28;45438;-90
2023/01/17 04:04:20;;;;;;;;;;;;;;;;;;;;;
2023/01/17 04:07:01;;;;;;;;;;;;;;;;;;;;;
2023/01/17 04:09:37;;;;;;;;;;;;;;;;;;;;;
2023/01/17 04:12:08;;;;;;;;;7.50;7.00;;;;;4.70;100.00;98433.44;4992614;28;68947;-90
2023/01/17 04:14:39;;;;;;;;;10.00;8.25;;;;;4.70;100.00;98426.56;4999420;28;45388;-90
2023/01/17 04:17:16;;;;;;;;;;;;;;;;;;;;;
2023/01/17 04:20:33;;;;;;;;;;;;;;;;;;;;;
2023/01/17 04:23:02;;;;;;;;;;;;;;;;;;;;;
2023/01/17 04:25:44;;;;;;;;;15.25;10.75;;;;;4.65;100.00;98415.63;5036999;28;68301;-90
2023/01/17 04:28:23;;;;;;;;;12.75;10.00;;;;;4.67;100.00;98418.97;5023595;28;45333;-90
2023/01/17 04:31:28;;;;;;;;;11.25;11.25;;;;;4.61;100.00;98402.03;5022337;28;45281;-90
2023/01/17 04:34:10;;;;;;;;;13.25;9.00;;;;;4.63;100.00;98417.41;5023765;28;45341;-90
2023/01/17 04:37:06;;;;;;;;;;;;;;;;;;;;;
2023/01/17 04:39:45;;;;;;;;;18.25;11.00;;;;;4.59;100.00;98413.31;5039026;28;74561;-90
2023/01/17 04:42:33;;;;;;;;;17.75;12.50;;;;;4.58;100.00;98404.72;5023472;28;45800;-90
2023/01/17 04:45:19;;;;;;;;;;;;;;;;;;;;;
2023/01/17 04:51:24;;;;;;;;;15.00;11.25;;;;;4.44;100.00;98395.00;5011644;28;45337;-90
2023/01/17 04:54:31;;;;;;;;;;;;;;;;;;;;;
2023/01/17 04:57:50;;;;;;;;;;;;;;;;;;;;;
2023/01/17 05:00:34;;;;;;;;;;;;;;;;;;;;;
2023/01/17 05:03:22;;;;;;;;;;;;;;;;;;;;;
2023/01/17 05:06:23;;;;;;;;;17.25;11.25;;;;;4.29;100.00;98357.00;5035231;28;73550;-90
2023/01/17 05:09:46;;;;;;;;;;;;;;;;;;;;;
2023/01/17 05:12:24;;;;;;;;;;;;;;;;;;;;;
2023/01/17 05:15:15;;;;;;;;;;;;;;;;;;;;;
2023/01/17 05:18:10;;;;;;;;;;;;;;;;;;;;;
2023/01/17 05:21:04;;;;;;;;;14.50;13.00;;;;;4.19;100.00;98342.81;5045097;28;69200;-90
2023/01/17 05:23:49;;;;;;;;;14.25;12.25;;;;;4.21;100.00;98346.16;5059054;28;45551;-90
2023/01/17 05:29:18;;;;;;;;;;;;;;;;;;;;;
2023/01/17 05:32:17;;;;;;;;;;;;;;;;;;;;;
2023/01/17 05:34:53;;;;;;;;;25.00;15.50;;;;;4.04;100.00;98336.56;4974756;28;71498;-90
2023/01/17 05:41:03;;;;;;;;;13.25;12.75;;;;;4.00;100.00;98335.84;4969722;28;45935;-90
2023/01/17 05:46:56;;;;;;;;;17.75;12.00;;;;;3.97;100.00;98341.09;4946306;28;45511;-90
2023/01/17 05:49:42;;;;;;;;;;;;;;;;;;;;;
2023/01/17 05:52:29;;;;;;;;;;;;;;;;;;;;;
2023/01/17 05:55:10;;;;;;;;;;;;;;;;;;;;;
2023/01/17 05:58:00;;;;;;;;;;;;;;;;;;;;;
2023/01/17 06:00:36;;;;;;;;;;;;;;;;;;;;;
2023/01/17 06:03:21;;;;;;;;;23.25;13.00;;;;;3.94;100.00;98315.50;4952294;28;71473;-88
2023/01/17 06:06:02;;;;;;;;;;;;;;;;;;;;;
2023/01/17 06:08:40;;;;;;;;;;;;;;;;;;;;;
2023/01/17 06:11:18;;;;;;;;;;;;;;;;;;;;;
2023/01/17 06:13:52;;;;;;;;;15.25;12.25;;;;;3.96;100.00;98323.19;5053905;28;73901;-89
2023/01/17 06:16:29;;;;;;;;;17.50;12.25;;;;;3.96;100.00;98318.03;5041276;28;45350;-89
2023/01/17 06:19:10;;;;;;;;;;;;;;;;;;;;;
2023/01/17 06:22:13;;;;;;;;;;;;;;;;;;;;;
2023/01/17 06:25:09;;;;;;;;;;;;;;;;;;;;;
2023/01/17 06:27:59;;;;;;;;;;;;;;;;;;;;;
2023/01/17 06:31:04;;;;;;;;;;;;;;;;;;;;;
2023/01/17 06:33:39;;;;;;;;;;;;;;;;;;;;;
2023/01/17 06:39:16;;;;;;;;;;;;;;;;;;;;;
2023/01/17 06:42:20;;;;;;;;;;;;;;;;;;;;;
2023/01/17 06:45:12;;;;;;;;;22.25;12.75;;;;;4.20;100.00;98318.75;5053657;28;75025;-89
2023/01/17 06:48:25;;;;;;;;;;;;;;;;;;;;;
2023/01/17 06:50:51;;;;;;;;;15.50;14.75;;;;;4.22;100.00;98299.75;4974583;28;69907;-86
2023/01/17 06:57:39;;;;;;;;;;;;;;;;;;;;;
2023/01/17 07:04:37;;;;;;;;;;;;;;;;;;;;;
2023/01/17 07:07:39;;;;;;;;;18.25;9.50;;;;;4.08;100.00;98310.63;4750391;29;69362;-89
2023/01/17 07:11:01;;;;;;;;;21.25;15.00;;;;;4.12;100.00;98311.31;4751666;29;45460;-90
2023/01/17 07:14:13;;;;;;;;;;;;;;;;;;;;;
2023/01/17 07:17:21;;;;;;;;;;;;;;;;;;;;;
2023/01/17 07:23:11;;;;;;;;;17.00;15.25;;;;;4.19;100.00;98324.78;4680404;30;46269;-90
2023/01/17 07:26:15;;;;;;;;;;;;;;;;;;;;;
2023/01/17 07:32:16;;;;;;;;;24.00;13.75;;;;;4.31;100.00;98326.00;4663920;30;45991;-90
2023/01/17 07:35:32;;;;;;;;;;;;;;;;;;;;;
2023/01/17 07:37:57;;;;;;;;;19.25;13.50;;;;;4.12;100.00;98318.22;4712872;30;72426;-89
2023/01/17 07:44:00;;;;;;;;;21.00;16.00;;;;;4.15;100.00;98318.09;4712803;30;45970;-90
2023/01/17 07:47:37;;;;;;;;;;;;;;;;;;;;;
2023/01/17 07:50:24;;;;;;;;;;;;;;;;;;;;;
2023/01/17 07:56:46;;;;;;;;;;;;;;;;;;;;;
2023/01/17 08:12:59;;;;;;;;;;;;;;;;;;;;;
2023/01/17 08:16:26;;;;;;;;;;;;;;;;;;;;;
2023/01/17 08:19:52;;;;;;;;;;;;;;;;;;;;;
2023/01/17 08:26:17;;;;;;;;;;;;;;;;;;;;;
2023/01/17 08:34:35;;;;;;;;;19.00;15.50;;;;;4.20;100.00;98336.78;4841109;29;45487;-87
2023/01/17 08:37:23;;;;;;;;;19.75;12.50;;;;;4.16;100.00;98341.22;4862504;29;70775;-89
2023/01/17 08:40:19;;;;;;;;;20.25;13.25;;;;;4.17;100.00;98348.03;4848328;29;45946;-91
2023/01/17 08:42:56;;;;;;;;;;;;;;;;;;;;;
2023/01/17 08:45:47;;;;;;;;;22.75;17.25;;;;;4.28;100.00;98339.03;4866273;29;70310;-91
2023/01/17 08:48:50;;;;;;;;;;;;;;;;;;;;;
2023/01/17 08:51:16;;;;;;;;;16.00;13.00;;;;;4.38;100.00;98338.59;4874656;29;73300;-87
2023/01/17 08:54:14;;;;;;;;;19.25;14.00;;;;;4.36;100.00;98337.78;4893269;28;45401;-91
2023/01/17 09:00:25;;;;;;;;;;;;;;;;;;;;;
2023/01/17 09:06:41;;;;;;;;;15.50;13.75;;;;;4.35;100.00;98328.41;4825842;29;45515;-88
2023/01/17 09:09:08;;;;;;;;;16.50;15.00;;;;;4.34;100.00;98328.47;4824974;29;45670;-88
2023/01/17 09:11:34;;;;;;;;;18.75;14.75;;;;;4.29;100.00;98333.81;4824791;29;47199;-86
2023/01/17 09:14:00;;;;;;;;;25.50;14.25;;;;;4.35;100.00;98337.88;4827378;29;46045;-89
2023/01/17 09:16:26;;;;;;;;;14.25;11.00;;;;;4.41;100.00;98343.59;4844593;29;45456;-86
2023/01/17 09:18:56;;;;;;;;;20.00;13.25;;;;;4.42;100.00;98337.56;4840417;29;45686;-87
2023/01/17 09:21:21;;;;;;;;;26.75;17.00;;;;;4.56;100.00;98341.28;4839669;29;45513;-86
2023/01/17 09:23:47;;;;;;;;;21.75;17.00;;;;;4.63;100.00;98337.53;4824551;29;45481;-86
2023/01/17 09:26:22;;;;;;;;;21.00;12.00;;;;;4.70;100.00;98336.38;4834980;29;45501;-88
2023/01/17 09:28:48;;;;;;;;;25.50;15.00;;;;;4.81;100.00;98348.78;4827829;29;45563;-88
2023/01/17 09:31:14;;;;;;;;;23.25;14.25;;;;;4.87;100.00;98338.22;4809928;29;48113;-87
2023/01/17 09:33:42;;;;;;;;;30.25;16.75;;;;;4.88;100.00;98329.56;4809645;29;45403;-87
2023/01/17 09:36:11;;;;;;;;;29.00;15.25;;;;;4.98;100.00;98346.31;4841567;29;45438;-86
2023/01/17 09:38:45;;;;;;;;;20.50;14.00;;;;;5.00;100.00;98344.50;4900686;29;45508;-88
2023/01/17 09:41:43;;;;;;;;;24.75;18.75;;;;;5.07;100.00;98333.91;4884387;29;45666;-87
2023/01/17 09:44:20;;;;;;;;;18.75;14.50;;;;;5.15;100.00;98337.00;4993105;28;45387;-89
2023/01/17 09:46:47;;;;;;;;;19.25;14.25;;;;;5.24;100.00;98346.88;5037716;28;45344;-88
2023/01/17 09:49:32;;;;;;;;;21.25;14.00;;;;;5.34;100.00;98352.47;5019571;28;46494;-86
2023/01/17 09:52:01;;;;;;;;;17.00;15.50;;;;;5.41;100.00;98348.69;5012687;28;46683;-89
2023/01/17 09:54:33;;;;;;;;;20.00;16.25;;;;;5.48;100.00;98355.25;5003770;28;46054;-87
2023/01/17 09:57:09;;;;;;;;;14.50;11.75;;;;;5.51;100.00;98344.75;5004406;28;45415;-89
2023/01/17 09:59:52;;;;;;;;;21.25;16.00;;;;;5.54;100.00;98360.13;5033797;28;45419;-87
2023/01/17 10:02:35;;;;;;;;;18.75;16.25;;;;;5.57;100.00;98354.81;5016604;28;47276;-88
2023/01/17 10:05:09;;;;;;;;;23.75;16.25;;;;;5.59;100.00;98359.88;5019982;28;45374;-89
2023/01/17 10:08:09;;;;;;;;;18.00;12.75;;;;;5.57;100.00;98361.72;5038680;28;45338;-89
2023/01/17 10:10:50;;;;;;;;;20.25;15.75;;;;;5.62;100.00;98362.34;5020636;28;45509;-90
2023/01/17 10:13:39;;;;;;;;;16.50;13.50;;;;;5.67;100.00;98373.28;5036718;28;47650;-89
2023/01/17 10:16:15;;;;;;;;;20.50;12.50;;;;;5.75;100.00;98373.75;5019941;28;46065;-86
2023/01/17 10:19:08;;;;;;;;;18.75;10.25;;;;;5.82;100.00;98379.47;5019664;28;45357;-88
2023/01/17 10:22:06;;;;;;;;;16.25;12.50;;;;;5.84;100.00;98371.66;5004044;28;45552;-88
2023/01/17 10:24:53;;;;;;;;;18.75;15.25;;;;;5.92;100.00;98367.78;5017526;28;46508;-88
2023/01/17 10:27:22;;;;;;;;;11.50;3.00;;;;;5.96;100.00;98371.09;5000229;28;45283;-87
2023/01/17 10:29:48;;;;;;;;;22.25;13.50;;;;;5.99;100.00;98373.53;4983798;28;45328;-88
2023/01/17 10:32:14;;;;;;;;;14.00;10.25;;;;;6.03;100.00;98364.72;5000234;28;45476;-88
2023/01/17 10:34:54;;;;;;;;;16.50;8.50;;;;;6.08;100.00;98362.78;5017173;28;45487;-89
2023/01/17 10:37:35;;;;;;;;;14.25;13.00;;;;;6.15;100.00;98364.16;5015843;28;45931;-87
2023/01/17 10:40:16;;;;;;;;;16.25;11.00;;;;;6.21;100.00;98363.00;4999666;28;45506;-86
2023/01/17 10:42:51;;;;;;;;;14.75;8.75;;;;;6.25;100.00;98372.28;5026066;28;45596;-87
2023/01/17 10:45:27;;;;;;;;;19.50;10.50;;;;;6.29;100.00;98368.63;5015760;28;46373;-86
2023/01/17 10:48:03;;;;;;;;;14.00;11.00;;;;;6.31;100.00;98364.22;5016983;28;45244;-86
2023/01/17 10:50:33;;;;;;;;;20.00;11.50;;;;;6.28;100.00;98354.06;4988316;28;45467;-85
2023/01/17 10:53:09;;;;;;;;;24.00;13.50;;;;;6.31;100.00;98365.97;4993858;28;45196;-87
2023/01/17 10:55:52;;;;;;;;;26.75;16.50;;;;;6.32;100.00;98355.56;4999642;28;47365;-86
2023/01/17 10:58:17;;;;;;;;;14.75;13.25;;;;;6.31;100.00;98348.72;4998618;28;45347;-86
2023/01/17 11:01:09;;;;;;;;;11.00;11.00;;;;;6.30;100.00;98353.97;5001159;28;45532;-85
2023/01/17 11:03:35;;;;;;;;;19.00;11.75;;;;;6.27;100.00;98349.78;4995683;28;45460;-87
2023/01/17 11:06:20;;;;;;;;;21.00;14.00;;;;;6.31;100.00;98358.22;4978722;28;55242;-86
2023/01/17 11:09:00;;;;;;;;;19.00;13.50;;;;;6.32;100.00;98345.22;5014485;28;45479;-85
2023/01/17 11:11:31;;;;;;;;;14.25;10.75;;;;;6.32;100.00;98349.56;5016821;28;45601;-86
2023/01/17 11:14:17;;;;;;;;;17.00;10.00;;;;;6.27;100.00;98344.63;4982775;28;45498;-85
2023/01/17 11:16:42;;;;;;;;;14.00;8.75;;;;;6.26;100.00;98337.78;4998294;28;47416;-86
2023/01/17 11:19:27;;;;;;;;;14.00;10.00;;;;;6.28;100.00;98345.44;4998976;28;45296;-87
2023/01/17 11:21:56;;;;;;;;;11.50;9.75;;;;;6.30;100.00;98333.31;4994451;28;45412;-87
2023/01/17 11:24:37;;;;;;;;;14.75;10.00;;;;;6.40;100.00;98332.75;4998918;28;45532;-88
2023/01/17 11:27:07;;;;;;;;;11.75;10.25;;;;;6.38;100.00;98321.66;4998962;28;46132;-87
2023/01/17 11:29:39;;;;;;;;;15.50;10.00;;;;;6.43;100.00;98333.53;4999021;28;45789;-87
2023/01/17 11:32:27;;;;;;;;;13.50;11.00;;;;;6.39;100.00;98335.44;5030611;28;45348;-87
2023/01/17 11:35:11;;;;;;;;;15.00;5.50;;;;;6.32;100.00;98340.06;4995615;28;45509;-87
2023/01/17 11:37:37;;;;;;;;;22.25;14.50;;;;;6.31;100.00;98335.78;5031851;28;47336;-86
2023/01/17 11:40:44;;;;;;;;;19.25;10.75;;;;;6.33;100.00;98331.41;4998763;28;45338;-85
2023/01/17 11:43:21;;;;;;;;;17.25;10.50;;;;;6.38;100.00;98329.41;5016868;28;45346;-87
2023/01/17 11:46:05;;;;;;;;;11.50;7.00;;;;;6.36;100.00;98331.25;5024845;28;45484;-87
2023/01/17 11:49:01;;;;;;;;;18.00;10.50;;;;;6.33;100.00;98326.25;5027986;28;46260;-89
2023/01/17 11:51:29;;;;;;;;;13.00;11.00;;;;;6.27;100.00;98318.78;5009303;28;45406;-87
2023/01/17 11:54:10;;;;;;;;;14.75;11.00;;;;;6.27;100.00;98326.53;4998711;28;45251;-87
2023/01/17 11:56:36;;;;;;;;;16.75;9.50;;;;;6.25;100.00;98322.38;4998746;28;45409;-89
2023/01/17 11:59:22;;;;;;;;;14.00;7.75;;;;;6.20;100.00;98315.69;4998983;28;46333;-89
2023/01/17 12:02:06;;;;;;;;;11.25;6.00;;;;;6.18;100.00;98314.06;5032226;28;45815;-89
2023/01/17 12:04:42;;;;;;;;;12.50;9.00;;;;;6.14;100.00;98303.06;5015883;28;45432;-88
2023/01/17 12:07:31;;;;;;;;;14.25;8.00;;;;;6.19;100.00;98308.84;4962787;28;45582;-88
2023/01/17 12:10:27;;;;;;;;;9.00;9.00;;;;;6.24;100.00;98300.88;4975945;28;48264;-88
2023/01/17 12:18:56;;;;;;;;;11.00;9.25;;;;;6.15;100.00;98304.75;4999454;28;45615;-84
2023/01/17 12:21:35;;;;;;;;;13.50;8.25;;;;;6.16;100.00;98301.22;5028856;28;47619;-87
2023/01/17 12:24:28;;;;;;;;;10.50;7.50;;;;;6.15;100.00;98307.31;5001100;28;46183;-86
2023/01/17 12:26:56;;;;;;;;;7.25;7.00;;;;;6.10;100.00;98304.13;5020489;28;45334;-87
2023/01/17 12:29:31;;;;;;;;;6.00;6.00;;;;;6.08;100.00;98303.38;5024390;28;45477;-87
2023/01/17 12:32:22;;;;;;;;;11.75;8.00;;;;;6.04;100.00;98301.03;5014976;28;45457;-86
2023/01/17 12:35:05;;;;;;;;;10.00;5.00;;;;;6.02;100.00;98298.50;4977825;28;45411;-89
2023/01/17 12:37:35;;;;;;;;;17.75;7.50;;;;;6.02;100.00;98295.94;4994525;28;45315;-83
2023/01/17 12:40:07;;;;;;;;;12.25;7.25;;;;;5.97;100.00;98292.72;5000855;28;45406;-90
2023/01/17 12:42:37;;;;;;;;;8.50;8.25;;;;;5.98;100.00;98299.56;5002968;28;48341;-86
2023/01/17 12:45:14;;;;;;;;;10.00;5.50;;;;;6.01;100.00;98300.25;4984748;28;45389;-89
2023/01/17 12:47:43;;;;;;;;;14.00;7.00;;;;;5.97;100.00;98303.88;5000998;28;45980;-87
2023/01/17 12:50:20;;;;;;;;;5.00;5.00;;;;;5.99;100.00;98296.91;4981379;28;45378;-88
2023/01/17 12:53:21;;;;;;;;;16.00;7.50;;;;;5.93;100.00;98294.59;5021781;28;45423;-88
2023/01/17 12:56:05;;;;;;;;;6.50;5.00;;;;;5.92;100.00;98298.06;5021936;28;45923;-86
2023/01/17 12:58:37;;;;;;;;;10.25;7.50;;;;;5.90;100.00;98297.31;5017997;28;45457;-86
2023/01/17 13:01:09;;;;;;;;;7.00;7.00;;;;;5.89;100.00;98294.81;5000705;28;45328;-86
2023/01/17 13:04:04;;;;;;;;;6.50;5.00;;;;;5.94;100.00;98290.25;4994766;28;47387;-87
2023/01/17 13:06:41;;;;;;;;;9.50;7.00;;;;;5.93;100.00;98292.00;4901593;28;45898;-88
2023/01/17 13:09:08;;;;;;;;;10.25;9.00;;;;;5.91;100.00;98293.84;4913082;28;45546;-88
2023/01/17 13:11:48;;;;;;;;;10.00;5.50;;;;;5.95;100.00;98297.09;4893500;28;45643;-87
2023/01/17 13:14:14;;;;;;;;;13.50;5.50;;;;;5.98;100.00;98294.38;4905744;28;46621;-87
2023/01/17 13:16:49;;;;;;;;;11.75;7.00;;;;;5.98;100.00;98295.25;4889743;28;46250;-88
2023/01/17 13:19:31;;;;;;;;;19.75;8.00;;;;;5.99;100.00;98294.31;4887503;28;45414;-87
2023/01/17 13:21:57;;;;;;;;;9.25;7.75;;;;;6.03;100.00;98300.16;4936882;28;45645;-88
2023/01/17 13:24:59;;;;;;;;;13.25;8.75;;;;;6.03;100.00;98294.19;4905884;28;47273;-87
2023/01/17 13:27:51;;;;;;;;;4.25;2.00;;;;;6.01;100.00;98296.81;4878454;29;45884;-87
2023/01/17 13:30:34;;;;;;;;;10.00;5.00;;;;;5.91;100.00;98293.84;4880992;29;45332;-87
2023/01/17 13:33:24;;;;;;;;;10.75;7.75;;;;;5.90;100.00;98299.06;4865345;29;45282;-88
2023/01/17 13:36:17;;;;;;;;;8.00;5.00;;;;;5.82;100.00;98295.13;4864912;29;48358;-88
2023/01/17 13:39:04;;;;;;;;;10.25;7.00;;;;;5.81;100.00;98298.63;4864853;29;45247;-87
2023/01/17 13:41:35;;;;;;;;;10.50;7.25;;;;;5.78;100.00;98297.94;4880849;29;45433;-88
2023/01/17 13:47:17;;;;;;;;;8.25;6.00;;;;;5.77;100.00;98296.25;4932785;28;45398;-86
2023/01/17 13:49:50;;;;;;;;;14.50;4.25;;;;;5.77;100.00;98288.50;4929642;28;46086;-88
2023/01/17 13:52:18;;;;;;;;;7.75;7.00;;;;;5.76;100.00;98298.00;4956393;28;45273;-88
2023/01/17 13:54:55;;;;;;;;;12.50;4.25;;;;;5.75;100.00;98295.50;4955747;28;45613;-88
2023/01/17 13:57:31;;;;;;;;;10.00;8.00;;;;;5.81;100.00;98301.19;4951470;28;47168;-88
2023/01/17 14:00:22;;;;;;;;;13.00;7.25;;;;;5.89;100.00;98306.00;4956872;28;45507;-87
2023/01/17 14:02:49;;;;;;;;;10.75;7.50;;;;;5.94;100.00;98301.44;4958650;28;45330;-87
2023/01/17 14:05:30;;;;;;;;;7.50;6.50;;;;;6.04;100.00;98303.59;4992647;28;45708;-89
2023/01/17 14:07:59;;;;;;;;;11.00;5.50;;;;;6.11;100.00;98307.53;5022919;28;48316;-88
2023/01/17 14:10:32;;;;;;;;;11.00;6.50;;;;;6.11;100.00;98313.56;4971840;28;45407;-88
2023/01/17 14:12:58;;;;;;;;;9.50;7.00;;;;;6.08;100.00;98310.28;5023068;28;45432;-88
2023/01/17 14:15:28;;;;;;;;;11.25;7.75;;;;;6.07;100.00;98309.44;5010738;28;45428;-88
2023/01/17 14:17:59;;;;;;;;;7.25;7.25;;;;;6.07;100.00;98316.34;5000586;28;45473;-88
2023/01/17 14:20:25;;;;;;;;;13.25;8.00;;;;;6.08;100.00;98328.38;5023266;28;46111;-88
2023/01/17 14:22:52;;;;;;;;;8.00;6.00;;;;;6.03;100.00;98322.59;5019471;28;45532;-88
2023/01/17 14:25:27;;;;;;;;;8.00;6.50;;;;;5.97;100.00;98326.31;5037271;28;45396;-88
2023/01/17 14:27:55;;;;;;;;;7.25;6.00;;;;;5.93;100.00;98338.50;5019128;28;47917;-88
2023/01/17 14:30:25;;;;;;;;;14.75;9.50;;;;;5.90;100.00;98337.81;5003188;28;45683;-88
2023/01/17 14:32:57;;;;;;;;;9.75;8.00;;;;;5.92;100.00;98349.72;5002725;28;45919;-88
2023/01/17 14:35:23;;;;;;;;;9.50;5.00;;;;;5.90;100.00;98345.53;5035551;28;45421;-87
2023/01/17 14:37:51;;;;;;;;;11.00;7.00;;;;;5.76;100.00;98339.31;5019443;28;47263;-88
2023/01/17 14:40:18;;;;;;;;;9.00;5.00;;;;;5.74;100.00;98350.59;5002585;28;45701;-86
2023/01/17 14:42:44;;;;;;;;;4.75;4.50;;;;;5.65;100.00;98348.47;5019150;28;45421;-88
2023/01/17 14:45:14;;;;;;;;;13.75;5.00;;;;;5.62;100.00;98362.34;5019068;28;45552;-87
2023/01/17 14:47:43;;;;;;;;;7.75;5.00;;;;;5.58;100.00;98353.91;5018762;28;45472;-88
2023/01/17 14:50:18;;;;;;;;;8.00;6.50;;;;;5.55;100.00;98356.66;5018939;28;45367;-87
2023/01/17 14:52:44;;;;;;;;;7.00;4.00;;;;;5.52;100.00;98359.34;5037124;28;45280;-88
2023/01/17 14:55:15;;;;;;;;;10.75;7.00;;;;;5.45;100.00;98365.69;5019157;28;45532;-87
2023/01/17 14:57:41;;;;;;;;;5.00;5.00;;;;;5.34;100.00;98362.78;5036850;28;46469;-88
2023/01/17 15:00:18;;;;;;;;;9.00;8.00;;;;;5.34;100.00;98365.34;5018850;28;45577;-88
2023/01/17 15:02:45;;;;;;;;;8.25;7.25;;;;;5.31;100.00;98371.50;5037241;28;45480;-88
2023/01/17 15:05:13;;;;;;;;;13.75;7.00;;;;;5.36;100.00;98379.84;5002433;28;45331;-88
2023/01/17 15:07:38;;;;;;;;;12.75;7.00;;;;;5.33;100.00;98382.59;4999414;28;46278;-87
2023/01/17 15:10:04;;;;;;;;;7.00;4.75;;;;;5.23;100.00;98384.72;5011873;28;45733;-86
2023/01/17 15:12:30;;;;;;;;;10.75;5.00;;;;;5.16;100.00;98380.78;5036243;28;45520;-88
2023/01/17 15:14:57;;;;;;;;;6.25;4.00;;;;;5.17;100.00;98382.44;5019330;28;45708;-88
2023/01/17 15:17:23;;;;;;;;;7.00;4.50;;;;;5.20;100.00;98394.34;5019028;28;45941;-88
2023/01/17 15:20:13;;;;;;;;;7.00;4.75;;;;;5.18;100.00;98384.13;5018455;28;45623;-88
2023/01/17 15:22:39;;;;;;;;;10.25;4.75;;;;;5.18;100.00;98381.53;5018522;28;45457;-87
2023/01/17 15:25:07;;;;;;;;;8.75;5.00;;;;;5.22;100.00;98395.97;5002369;28;45331;-88
2023/01/17 15:27:33;;;;;;;;;10.00;7.00;;;;;5.23;100.00;98391.63;5001256;28;47143;-87
2023/01/17 15:30:00;;;;;;;;;8.00;4.25;;;;;5.23;100.00;98386.47;5001574;28;48819;-87
2023/01/17 15:32:52;;;;;;;;;;;;;;;;;;;;;
2023/01/17 15:35:21;;;;;;;;;12.75;7.75;;;;;5.22;100.00;98385.63;5016798;28;69715;-88
2023/01/17 15:41:38;;;;;;;;;13.25;7.00;;;;;5.28;100.00;98394.03;4956080;28;45313;-90
2023/01/17 15:44:03;;;;;;;;;10.50;7.50;;;;;5.34;100.00;98404.06;4942061;28;45417;-88
2023/01/17 15:46:47;;;;;;;;;15.25;7.50;;;;;5.29;100.00;98401.66;4956750;28;45507;-91
2023/01/17 15:49:56;;;;;;;;;10.50;5.00;;;;;5.28;100.00;98400.00;4941399;28;46639;-89
2023/01/17 15:52:34;;;;;;;;;;;;;;;;;;;;;
2023/01/17 15:55:33;;;;;;;;;;;;;;;;;;;;;
2023/01/17 16:02:01;;;;;;;;;10.50;6.50;;;;;5.35;100.00;98400.56;4943056;28;46632;-88
2023/01/17 16:07:57;;;;;;;;;9.25;5.00;;;;;5.36;100.00;98418.53;4844136;29;45514;-88
2023/01/17 16:11:00;;;;;;;;;7.25;4.00;;;;;5.34;100.00;98414.38;4859890;29;45572;-90
2023/01/17 16:13:49;;;;;;;;;10.75;9.50;;;;;5.36;100.00;98423.69;4787201;29;47208;-90
2023/01/17 16:16:26;;;;;;;;;10.50;7.25;;;;;5.34;100.00;98422.94;4786875;29;45387;-88
2023/01/17 16:22:17;;;;;;;;;12.75;7.75;;;;;5.39;100.00;98422.75;4786725;29;45799;-89
2023/01/17 16:24:43;;;;;;;;;6.50;6.00;;;;;5.45;100.00;98445.69;4770651;29;48180;-89
2023/01/17 16:27:40;;;;;;;;;10.75;7.75;;;;;5.45;100.00;98445.69;4789683;29;45436;-90
2023/01/17 16:30:51;;;;;;;;;7.50;6.50;;;;;5.43;100.00;98447.50;4774281;29;45537;-91
2023/01/17 16:37:07;;;;;;;;;11.50;6.50;;;;;5.48;100.00;98458.47;4786125;29;46408;-92
2023/01/17 16:46:42;;;;;;;;;21.00;10.50;;;;;5.43;100.00;98471.56;4790850;29;45620;-90
2023/01/17 16:55:25;;;;;;;;;10.25;7.75;;;;;5.33;100.00;98472.88;4768273;29;45703;-90
2023/01/17 17:19:22;;;;;;;;;16.50;8.50;;;;;5.26;100.00;98494.69;4625365;30;45522;-86
2023/01/17 17:21:48;;;;;;;;;8.50;6.00;;;;;5.31;100.00;98515.09;4650074;30;45466;-86
2023/01/17 17:24:16;;;;;;;;;17.00;8.50;;;;;5.27;100.00;98511.00;4659671;30;45363;-86
2023/01/17 17:26:58;;;;;;;;;16.00;9.50;;;;;5.23;100.00;98511.09;4665322;30;45945;-87
2023/01/17 17:29:48;;;;;;;;;17.25;10.25;;;;;5.25;100.00;98513.63;4689474;30;45861;-89
2023/01/17 17:32:31;;;;;;;;;12.25;10.75;;;;;5.26;100.00;98522.22;4682870;30;45324;-89
2023/01/17 17:34:59;;;;;;;;;11.50;9.00;;;;;5.22;100.00;98524.09;4654551;30;45625;-89
2023/01/17 17:37:27;;;;;;;;;12.50;10.00;;;;;5.24;100.00;98532.59;4738836;29;47280;-89
2023/01/17 17:40:08;;;;;;;;;;;;;;;;;;;;;
2023/01/17 17:42:34;;;;;;;;;11.75;8.00;;;;;5.19;100.00;98537.94;4772668;29;70336;-90
2023/01/17 17:45:49;;;;;;;;;15.75;7.25;;;;;5.17;100.00;98536.34;4840815;28;45259;-93
2023/01/17 17:48:17;;;;;;;;;10.75;8.50;;;;;5.20;100.00;98549.09;5023936;28;45444;-90
2023/01/17 17:50:42;;;;;;;;;12.50;12.50;;;;;5.19;100.00;98553.41;5001779;28;45862;-90
2023/01/17 17:53:20;;;;;;;;;7.00;7.00;;;;;5.20;100.00;98552.53;5025236;28;45287;-91
2023/01/17 17:56:37;;;;;;;;;12.50;7.00;;;;;5.15;100.00;98553.63;5041313;28;45362;-94
2023/01/17 17:59:28;;;;;;;;;7.00;7.00;;;;;5.12;100.00;98556.31;4960497;28;45507;-91
2023/01/17 18:02:40;;;;;;;;;12.50;5.00;;;;;5.14;100.00;98557.91;4945606;28;45890;-92
2023/01/17 18:05:08;;;;;;;;;9.00;5.00;;;;;5.13;100.00;98556.25;4937151;28;45527;-92
2023/01/17 18:07:54;;;;;;;;;11.00;8.50;;;;;5.10;100.00;98566.69;4936752;28;45424;-90
2023/01/17 18:10:25;;;;;;;;;8.75;7.00;;;;;5.10;100.00;98573.59;4958425;28;46661;-90
2023/01/17 18:12:59;;;;;;;;;8.75;6.00;;;;;5.08;100.00;98581.41;4957638;28;45923;-91
2023/01/17 18:15:27;;;;;;;;;11.00;5.00;;;;;5.08;100.00;98575.41;4952583;28;45273;-90
2023/01/17 18:18:04;;;;;;;;;5.00;5.00;;;;;5.05;100.00;98584.09;4977314;28;45536;-93
2023/01/17 18:27:05;;;;;;;;;8.25;8.25;;;;;5.13;100.00;98604.44;4854014;29;45448;-91
2023/01/17 18:29:40;;;;;;;;;16.50;9.00;;;;;5.08;100.00;98606.34;4841374;29;45291;-90
2023/01/17 18:32:05;;;;;;;;;16.50;9.50;;;;;5.08;100.00;98612.34;4844283;29;46462;-89
2023/01/17 18:34:33;;;;;;;;;11.75;10.00;;;;;5.12;100.00;98615.63;4845496;29;45337;-89
2023/01/17 18:36:58;;;;;;;;;16.25;10.50;;;;;5.08;100.00;98606.34;4880385;29;45310;-89
2023/01/17 18:39:26;;;;;;;;;7.25;7.25;;;;;5.05;100.00;98622.75;4849332;29;45598;-89